sensor_id;sensor_type;location;lat;lon;timestamp;pressure;altitude;pressure_sealevel;temperature;humidity
18988;BME280;5494;51.796;10.952;2023-11-21T00:00:49;98309.44;;;7.81;100.00
18988;BME280;5494;51.796;10.952;2023-11-21T00:03:17;98308.75;;;7.77;100.00
18988;BME280;5494;51.796;10.952;2023-11-21T00:05:46;98307.97;;;7.75;100.00
18988;BME280;5494;51.796;10.952;2023-11-21T00:08:14;98303.75;;;7.74;100.00
18988;BME280;5494;51.796;10.952;2023-11-21T00:10:42;98306.31;;;7.74;100.00
18988;BME280;5494;51.796;10.952;2023-11-21T00:13:11;98303.56;;;7.77;100.00
18988;BME280;5494;51.796;10.952;2023-11-21T00:15:40;98305.31;;;7.77;100.00
18988;BME280;5494;51.796;10.952;2023-11-21T00:18:08;98313.00;;;7.78;100.00
18988;BME280;5494;51.796;10.952;2023-11-21T00:20:37;98313.84;;;7.79;100.00
18988;BME280;5494;51.796;10.952;2023-11-21T00:23:05;98313.59;;;7.83;100.00
18988;BME280;5494;51.796;10.952;2023-11-21T00:25:34;98318.78;;;7.83;100.00
18988;BME280;5494;51.796;10.952;2023-11-21T00:28:02;98316.06;;;7.86;100.00
18988;BME280;5494;51.796;10.952;2023-11-21T00:30:31;98315.34;;;7.83;100.00
18988;BME280;5494;51.796;10.952;2023-11-21T00:33:00;98316.19;;;7.83;100.00
18988;BME280;5494;51.796;10.952;2023-11-21T00:35:28;98311.09;;;7.82;100.00
18988;BME280;5494;51.796;10.952;2023-11-21T00:37:57;98303.75;;;7.74;100.00
18988;BME280;5494;51.796;10.952;2023-11-21T00:40:25;98305.56;;;7.72;100.00
18988;BME280;5494;51.796;10.952;2023-11-21T00:42:54;98306.47;;;7.71;100.00
18988;BME280;5494;51.796;10.952;2023-11-21T00:45:24;98304.03;;;7.68;100.00
18988;BME280;5494;51.796;10.952;2023-11-21T00:47:52;98306.47;;;7.71;100.00
18988;BME280;5494;51.796;10.952;2023-11-21T00:50:23;98302.19;;;7.70;100.00
18988;BME280;5494;51.796;10.952;2023-11-21T00:52:51;98309.91;;;7.72;100.00
18988;BME280;5494;51.796;10.952;2023-11-21T00:55:19;98308.22;;;7.71;100.00
18988;BME280;5494;51.796;10.952;2023-11-21T00:57:48;98315.06;;;7.72;100.00
18988;BME280;5494;51.796;10.952;2023-11-21T01:00:17;98319.25;;;7.74;100.00
18988;BME280;5494;51.796;10.952;2023-11-21T01:02:45;98319.53;;;7.85;100.00
18988;BME280;5494;51.796;10.952;2023-11-21T01:05:14;98313.59;;;7.83;100.00
18988;BME280;5494;51.796;10.952;2023-11-21T01:07:43;98330.34;;;7.94;100.00
18988;BME280;5494;51.796;10.952;2023-11-21T01:10:12;98330.03;;;8.00;100.00
18988;BME280;5494;51.796;10.952;2023-11-21T01:12:40;98331.53;;;8.04;100.00
18988;BME280;5494;51.796;10.952;2023-11-21T01:15:08;98336.13;;;8.16;100.00
18988;BME280;5494;51.796;10.952;2023-11-21T01:17:38;98349.72;;;8.19;100.00
18988;BME280;5494;51.796;10.952;2023-11-21T01:20:09;98346.31;;;8.19;100.00
18988;BME280;5494;51.796;10.952;2023-11-21T01:22:42;98347.06;;;8.21;100.00
18988;BME280;5494;51.796;10.952;2023-11-21T01:25:11;98342.25;;;8.30;100.00
18988;BME280;5494;51.796;10.952;2023-11-21T01:27:42;98357.09;;;8.44;100.00
18988;BME280;5494;51.796;10.952;2023-11-21T01:30:11;98353.97;;;8.38;100.00
18988;BME280;5494;51.796;10.952;2023-11-21T01:32:39;98351.31;;;8.39;100.00
18988;BME280;5494;51.796;10.952;2023-11-21T01:35:09;98348.72;;;8.39;100.00
18988;BME280;5494;51.796;10.952;2023-11-21T01:37:38;98352.09;;;8.41;100.00
18988;BME280;5494;51.796;10.952;2023-11-21T01:40:09;98350.44;;;8.56;100.00
18988;BME280;5494;51.796;10.952;2023-11-21T01:42:41;98356.53;;;8.55;100.00
18988;BME280;5494;51.796;10.952;2023-11-21T01:45:10;98360.44;;;8.46;100.00
18988;BME280;5494;51.796;10.952;2023-11-21T01:47:41;98362.78;;;8.51;100.00
18988;BME280;5494;51.796;10.952;2023-11-21T01:50:15;98360.38;;;8.48;100.00
18988;BME280;5494;51.796;10.952;2023-11-21T01:52:45;98361.13;;;8.50;100.00
18988;BME280;5494;51.796;10.952;2023-11-21T01:55:17;98364.47;;;8.52;100.00
18988;BME280;5494;51.796;10.952;2023-11-21T01:57:55;98365.31;;;8.52;100.00
18988;BME280;5494;51.796;10.952;2023-11-21T02:00:25;98366.59;;;8.61;100.00
18988;BME280;5494;51.796;10.952;2023-11-21T02:02:56;98373.00;;;8.54;100.00
18988;BME280;5494;51.796;10.952;2023-11-21T02:05:24;98359.66;;;8.61;100.00
18988;BME280;5494;51.796;10.952;2023-11-21T02:07:53;98366.66;;;8.59;100.00
18988;BME280;5494;51.796;10.952;2023-11-21T02:10:22;98368.66;;;8.54;100.00
18988;BME280;5494;51.796;10.952;2023-11-21T02:12:52;98371.63;;;8.64;100.00
18988;BME280;5494;51.796;10.952;2023-11-21T02:15:20;98372.53;;;8.63;100.00
18988;BME280;5494;51.796;10.952;2023-11-21T02:17:50;98371.84;;;8.59;100.00
18988;BME280;5494;51.796;10.952;2023-11-21T02:20:22;98374.09;;;8.65;100.00
18988;BME280;5494;51.796;10.952;2023-11-21T02:22:55;98373.19;;;8.66;100.00
18988;BME280;5494;51.796;10.952;2023-11-21T02:25:29;98381.88;;;8.65;100.00
18988;BME280;5494;51.796;10.952;2023-11-21T02:28:00;98378.38;;;8.66;100.00
18988;BME280;5494;51.796;10.952;2023-11-21T02:30:30;98376.69;;;8.65;100.00
18988;BME280;5494;51.796;10.952;2023-11-21T02:32:59;98377.78;;;8.61;100.00
18988;BME280;5494;51.796;10.952;2023-11-21T02:35:28;98375.78;;;8.66;100.00
18988;BME280;5494;51.796;10.952;2023-11-21T02:38:00;98379.28;;;8.65;100.00
18988;BME280;5494;51.796;10.952;2023-11-21T02:40:28;98379.06;;;8.70;100.00
18988;BME280;5494;51.796;10.952;2023-11-21T02:42:57;98380.81;;;8.69;100.00
18988;BME280;5494;51.796;10.952;2023-11-21T02:45:26;98388.41;;;8.73;100.00
18988;BME280;5494;51.796;10.952;2023-11-21T02:47:54;98382.63;;;8.67;100.00
18988;BME280;5494;51.796;10.952;2023-11-21T02:50:24;98376.38;;;8.72;100.00
18988;BME280;5494;51.796;10.952;2023-11-21T02:52:52;98383.41;;;8.69;100.00
18988;BME280;5494;51.796;10.952;2023-11-21T02:55:23;98379.91;;;8.71;100.00
18988;BME280;5494;51.796;10.952;2023-11-21T02:57:53;98384.84;;;8.91;100.00
18988;BME280;5494;51.796;10.952;2023-11-21T03:00:23;98380.50;;;9.07;100.00
18988;BME280;5494;51.796;10.952;2023-11-21T03:02:52;98384.03;;;8.90;100.00
18988;BME280;5494;51.796;10.952;2023-11-21T03:05:21;98388.44;;;8.88;100.00
18988;BME280;5494;51.796;10.952;2023-11-21T03:07:49;98386.44;;;8.93;100.00
18988;BME280;5494;51.796;10.952;2023-11-21T03:10:18;98392.38;;;8.95;100.00
18988;BME280;5494;51.796;10.952;2023-11-21T03:12:48;98389.69;;;8.81;100.00
18988;BME280;5494;51.796;10.952;2023-11-21T03:15:16;98385.34;;;8.82;100.00
18988;BME280;5494;51.796;10.952;2023-11-21T03:17:45;98395.13;;;8.77;100.00
18988;BME280;5494;51.796;10.952;2023-11-21T03:20:16;98387.41;;;8.75;100.00
18988;BME280;5494;51.796;10.952;2023-11-21T03:22:44;98391.91;;;8.72;100.00
18988;BME280;5494;51.796;10.952;2023-11-21T03:25:13;98386.91;;;8.68;100.00
18988;BME280;5494;51.796;10.952;2023-11-21T03:27:42;98390.97;;;8.90;100.00
18988;BME280;5494;51.796;10.952;2023-11-21T03:30:12;98394.34;;;8.75;100.00
18988;BME280;5494;51.796;10.952;2023-11-21T03:32:41;98398.50;;;8.61;100.00
18988;BME280;5494;51.796;10.952;2023-11-21T03:35:09;98397.59;;;8.62;100.00
18988;BME280;5494;51.796;10.952;2023-11-21T03:37:38;98404.44;;;8.63;100.00
18988;BME280;5494;51.796;10.952;2023-11-21T03:40:09;98399.41;;;8.60;100.00
18988;BME280;5494;51.796;10.952;2023-11-21T03:42:39;98400.56;;;8.55;100.00
18988;BME280;5494;51.796;10.952;2023-11-21T03:45:08;98398.06;;;8.53;100.00
18988;BME280;5494;51.796;10.952;2023-11-21T03:47:38;98405.44;;;8.61;100.00
18988;BME280;5494;51.796;10.952;2023-11-21T03:50:08;98412.63;;;8.72;100.00
18988;BME280;5494;51.796;10.952;2023-11-21T03:52:37;98410.28;;;8.67;100.00
18988;BME280;5494;51.796;10.952;2023-11-21T03:55:06;98413.22;;;8.61;100.00
18988;BME280;5494;51.796;10.952;2023-11-21T03:57:34;98426.53;;;8.71;100.00
18988;BME280;5494;51.796;10.952;2023-11-21T04:00:05;98423.50;;;8.62;100.00
18988;BME280;5494;51.796;10.952;2023-11-21T04:02:39;98428.34;;;8.68;100.00
18988;BME280;5494;51.796;10.952;2023-11-21T04:05:08;98425.06;;;8.65;100.00
18988;BME280;5494;51.796;10.952;2023-11-21T04:07:36;98431.19;;;8.64;100.00
18988;BME280;5494;51.796;10.952;2023-11-21T04:10:07;98435.97;;;8.72;100.00
18988;BME280;5494;51.796;10.952;2023-11-21T04:12:36;98435.97;;;8.72;100.00
18988;BME280;5494;51.796;10.952;2023-11-21T04:15:05;98440.22;;;8.73;100.00
18988;BME280;5494;51.796;10.952;2023-11-21T04:17:35;98446.31;;;8.72;100.00
18988;BME280;5494;51.796;10.952;2023-11-21T04:20:07;98430.81;;;8.87;100.00
18988;BME280;5494;51.796;10.952;2023-11-21T04:22:40;98437.41;;;8.77;100.00
18988;BME280;5494;51.796;10.952;2023-11-21T04:25:09;98440.19;;;8.90;100.00
18988;BME280;5494;51.796;10.952;2023-11-21T04:27:39;98438.00;;;8.82;100.00
18988;BME280;5494;51.796;10.952;2023-11-21T04:30:14;98444.88;;;8.83;100.00
18988;BME280;5494;51.796;10.952;2023-11-21T04:32:42;98446.38;;;8.87;100.00
18988;BME280;5494;51.796;10.952;2023-11-21T04:35:12;98446.63;;;8.83;100.00
18988;BME280;5494;51.796;10.952;2023-11-21T04:37:41;98452.25;;;8.91;100.00
18988;BME280;5494;51.796;10.952;2023-11-21T04:40:11;98456.09;;;8.99;100.00
18988;BME280;5494;51.796;10.952;2023-11-21T04:42:39;98456.66;;;8.89;100.00
18988;BME280;5494;51.796;10.952;2023-11-21T04:45:08;98458.81;;;8.81;100.00
18988;BME280;5494;51.796;10.952;2023-11-21T04:47:39;98463.53;;;8.73;100.00
18988;BME280;5494;51.796;10.952;2023-11-21T04:50:08;98464.31;;;8.75;100.00
18988;BME280;5494;51.796;10.952;2023-11-21T04:52:38;98458.16;;;8.60;100.00
18988;BME280;5494;51.796;10.952;2023-11-21T04:55:07;98459.00;;;8.60;100.00
18988;BME280;5494;51.796;10.952;2023-11-21T04:57:37;98466.78;;;8.60;100.00
18988;BME280;5494;51.796;10.952;2023-11-21T05:00:07;98462.69;;;8.56;100.00
18988;BME280;5494;51.796;10.952;2023-11-21T05:02:35;98462.50;;;8.59;100.00
18988;BME280;5494;51.796;10.952;2023-11-21T05:05:06;98470.06;;;8.64;100.00
18988;BME280;5494;51.796;10.952;2023-11-21T05:07:39;98471.94;;;8.60;100.00
18988;BME280;5494;51.796;10.952;2023-11-21T05:10:08;98469.53;;;8.57;100.00
18988;BME280;5494;51.796;10.952;2023-11-21T05:12:40;98470.59;;;8.53;100.00
18988;BME280;5494;51.796;10.952;2023-11-21T05:15:09;98468.84;;;8.54;100.00
18988;BME280;5494;51.796;10.952;2023-11-21T05:17:40;98471.88;;;8.62;100.00
18988;BME280;5494;51.796;10.952;2023-11-21T05:20:14;98482.63;;;8.54;100.00
18988;BME280;5494;51.796;10.952;2023-11-21T05:22:46;98481.03;;;8.52;100.00
18988;BME280;5494;51.796;10.952;2023-11-21T05:25:15;98486.31;;;8.50;100.00
18988;BME280;5494;51.796;10.952;2023-11-21T05:27:45;98485.47;;;8.50;100.00
18988;BME280;5494;51.796;10.952;2023-11-21T05:30:14;98496.41;;;8.55;100.00
18988;BME280;5494;51.796;10.952;2023-11-21T05:32:42;98495.72;;;8.51;100.00
18988;BME280;5494;51.796;10.952;2023-11-21T05:35:11;98498.31;;;8.51;100.00
18988;BME280;5494;51.796;10.952;2023-11-21T05:37:42;98496.81;;;8.47;100.00
18988;BME280;5494;51.796;10.952;2023-11-21T05:40:13;98501.28;;;8.44;100.00
18988;BME280;5494;51.796;10.952;2023-11-21T05:42:41;98502.50;;;8.54;100.00
18988;BME280;5494;51.796;10.952;2023-11-21T05:45:10;98511.25;;;8.51;100.00
18988;BME280;5494;51.796;10.952;2023-11-21T05:47:41;98507.47;;;8.41;100.00
18988;BME280;5494;51.796;10.952;2023-11-21T05:50:10;98512.78;;;8.38;100.00
18988;BME280;5494;51.796;10.952;2023-11-21T05:52:43;98518.41;;;8.29;100.00
18988;BME280;5494;51.796;10.952;2023-11-21T05:55:13;98518.53;;;8.26;100.00
18988;BME280;5494;51.796;10.952;2023-11-21T05:57:43;98525.34;;;8.28;100.00
18988;BME280;5494;51.796;10.952;2023-11-21T06:00:14;98533.94;;;8.29;100.00
18988;BME280;5494;51.796;10.952;2023-11-21T06:02:47;98529.41;;;8.34;100.00
18988;BME280;5494;51.796;10.952;2023-11-21T06:05:18;98535.34;;;8.36;100.00
18988;BME280;5494;51.796;10.952;2023-11-21T06:07:47;98533.31;;;8.43;100.00
18988;BME280;5494;51.796;10.952;2023-11-21T06:10:16;98539.00;;;8.32;100.00
18988;BME280;5494;51.796;10.952;2023-11-21T06:12:46;98529.97;;;8.22;100.00
18988;BME280;5494;51.796;10.952;2023-11-21T06:15:18;98537.88;;;8.19;100.00
18988;BME280;5494;51.796;10.952;2023-11-21T06:17:48;98541.53;;;8.15;100.00
18988;BME280;5494;51.796;10.952;2023-11-21T06:20:21;98548.41;;;8.16;100.00
18988;BME280;5494;51.796;10.952;2023-11-21T06:22:51;98549.50;;;8.10;100.00
18988;BME280;5494;51.796;10.952;2023-11-21T06:25:20;98552.09;;;8.10;100.00
18988;BME280;5494;51.796;10.952;2023-11-21T06:27:50;98555.50;;;8.29;100.00
18988;BME280;5494;51.796;10.952;2023-11-21T06:30:19;98547.66;;;8.31;100.00
18988;BME280;5494;51.796;10.952;2023-11-21T06:32:48;98560.09;;;8.23;100.00
18988;BME280;5494;51.796;10.952;2023-11-21T06:35:18;98559.19;;;8.24;100.00
18988;BME280;5494;51.796;10.952;2023-11-21T06:37:47;98562.69;;;8.23;100.00
18988;BME280;5494;51.796;10.952;2023-11-21T06:40:18;98566.41;;;8.17;100.00
18988;BME280;5494;51.796;10.952;2023-11-21T06:42:49;98565.75;;;8.14;100.00
18988;BME280;5494;51.796;10.952;2023-11-21T06:45:18;98569.91;;;8.16;100.00
18988;BME280;5494;51.796;10.952;2023-11-21T06:47:47;98573.34;;;8.17;100.00
18988;BME280;5494;51.796;10.952;2023-11-21T06:50:15;98569.25;;;8.13;100.00
18988;BME280;5494;51.796;10.952;2023-11-21T06:52:44;98575.94;;;8.17;100.00
18988;BME280;5494;51.796;10.952;2023-11-21T06:55:12;98579.59;;;8.13;100.00
18988;BME280;5494;51.796;10.952;2023-11-21T06:57:40;98570.84;;;8.15;100.00
18988;BME280;5494;51.796;10.952;2023-11-21T07:00:11;98582.72;;;8.19;100.00
18988;BME280;5494;51.796;10.952;2023-11-21T07:02:39;98589.72;;;8.17;100.00
18988;BME280;5494;51.796;10.952;2023-11-21T07:05:08;98587.00;;;8.20;100.00
18988;BME280;5494;51.796;10.952;2023-11-21T07:07:36;98592.97;;;8.22;100.00
18988;BME280;5494;51.796;10.952;2023-11-21T07:10:05;98592.56;;;8.30;100.00
18988;BME280;5494;51.796;10.952;2023-11-21T07:12:34;98600.22;;;8.33;100.00
18988;BME280;5494;51.796;10.952;2023-11-21T07:15:06;98604.63;;;8.31;100.00
18988;BME280;5494;51.796;10.952;2023-11-21T07:17:38;98605.03;;;8.41;100.00
18988;BME280;5494;51.796;10.952;2023-11-21T07:20:08;98607.56;;;8.42;100.00
18988;BME280;5494;51.796;10.952;2023-11-21T07:22:38;98609.09;;;8.46;100.00
18988;BME280;5494;51.796;10.952;2023-11-21T07:25:06;98618.31;;;8.52;100.00
18988;BME280;5494;51.796;10.952;2023-11-21T07:27:36;98620.34;;;8.45;100.00
18988;BME280;5494;51.796;10.952;2023-11-21T07:30:05;98621.78;;;8.34;100.00
18988;BME280;5494;51.796;10.952;2023-11-21T07:32:35;98625.06;;;8.37;100.00
18988;BME280;5494;51.796;10.952;2023-11-21T07:35:09;98626.31;;;8.47;100.00
18988;BME280;5494;51.796;10.952;2023-11-21T07:37:37;98629.22;;;8.58;100.00
18988;BME280;5494;51.796;10.952;2023-11-21T07:40:07;98630.06;;;8.59;100.00
18988;BME280;5494;51.796;10.952;2023-11-21T07:42:38;98629.63;;;8.68;100.00
18988;BME280;5494;51.796;10.952;2023-11-21T07:45:07;98622.38;;;8.75;100.00
18988;BME280;5494;51.796;10.952;2023-11-21T07:47:36;98626.66;;;8.76;100.00
18988;BME280;5494;51.796;10.952;2023-11-21T07:50:09;98632.38;;;8.82;100.00
18988;BME280;5494;51.796;10.952;2023-11-21T07:52:37;98639.78;;;8.90;100.00
18988;BME280;5494;51.796;10.952;2023-11-21T07:55:06;98635.75;;;8.84;100.00
18988;BME280;5494;51.796;10.952;2023-11-21T07:57:35;98645.16;;;8.85;100.00
18988;BME280;5494;51.796;10.952;2023-11-21T08:00:05;98647.47;;;8.91;100.00
18988;BME280;5494;51.796;10.952;2023-11-21T08:02:39;98649.59;;;8.83;100.00
18988;BME280;5494;51.796;10.952;2023-11-21T08:05:10;98650.34;;;8.85;100.00
18988;BME280;5494;51.796;10.952;2023-11-21T08:07:51;98662.22;;;8.72;100.00
18988;BME280;5494;51.796;10.952;2023-11-21T08:10:19;98661.84;;;8.80;100.00
18988;BME280;5494;51.796;10.952;2023-11-21T08:12:48;98666.31;;;8.78;100.00
18988;BME280;5494;51.796;10.952;2023-11-21T08:15:18;98670.84;;;8.73;100.00
18988;BME280;5494;51.796;10.952;2023-11-21T08:17:47;98682.88;;;8.74;100.00
18988;BME280;5494;51.796;10.952;2023-11-21T08:20:17;98676.31;;;8.66;100.00
18988;BME280;5494;51.796;10.952;2023-11-21T08:22:45;98680.63;;;8.49;100.00
18988;BME280;5494;51.796;10.952;2023-11-21T08:25:15;98689.31;;;8.48;100.00
18988;BME280;5494;51.796;10.952;2023-11-21T08:27:47;98692.88;;;8.26;100.00
18988;BME280;5494;51.796;10.952;2023-11-21T08:30:15;98707.69;;;7.65;100.00
18988;BME280;5494;51.796;10.952;2023-11-21T08:32:46;98713.22;;;6.95;100.00
18988;BME280;5494;51.796;10.952;2023-11-21T08:35:15;98719.44;;;6.69;100.00
18988;BME280;5494;51.796;10.952;2023-11-21T08:37:44;98725.44;;;6.48;100.00
18988;BME280;5494;51.796;10.952;2023-11-21T08:40:13;98723.75;;;6.47;100.00
18988;BME280;5494;51.796;10.952;2023-11-21T08:42:43;98717.75;;;6.47;100.00
18988;BME280;5494;51.796;10.952;2023-11-21T08:45:12;98732.81;;;6.36;100.00
18988;BME280;5494;51.796;10.952;2023-11-21T08:47:40;98732.00;;;6.33;100.00
18988;BME280;5494;51.796;10.952;2023-11-21T08:50:11;98740.56;;;6.36;100.00
18988;BME280;5494;51.796;10.952;2023-11-21T08:52:42;98751.59;;;6.39;100.00
18988;BME280;5494;51.796;10.952;2023-11-21T08:55:10;98755.25;;;6.33;100.00
18988;BME280;5494;51.796;10.952;2023-11-21T08:57:40;98757.03;;;6.31;100.00
18988;BME280;5494;51.796;10.952;2023-11-21T09:00:10;98758.00;;;6.29;100.00
18988;BME280;5494;51.796;10.952;2023-11-21T09:02:40;98765.56;;;6.33;100.00
18988;BME280;5494;51.796;10.952;2023-11-21T09:05:10;98765.84;;;6.26;100.00
18988;BME280;5494;51.796;10.952;2023-11-21T09:07:42;98766.47;;;6.32;100.00
18988;BME280;5494;51.796;10.952;2023-11-21T09:10:16;98770.75;;;6.33;100.00
18988;BME280;5494;51.796;10.952;2023-11-21T09:12:44;98780.72;;;6.43;100.00
18988;BME280;5494;51.796;10.952;2023-11-21T09:15:12;98773.94;;;6.40;100.00
18988;BME280;5494;51.796;10.952;2023-11-21T09:17:41;98783.19;;;6.46;100.00
18988;BME280;5494;51.796;10.952;2023-11-21T09:20:12;98786.56;;;6.48;100.00
18988;BME280;5494;51.796;10.952;2023-11-21T09:22:43;98791.81;;;6.45;100.00
18988;BME280;5494;51.796;10.952;2023-11-21T09:25:13;98799.00;;;6.37;100.00
18988;BME280;5494;51.796;10.952;2023-11-21T09:27:41;98803.78;;;6.24;100.00
18988;BME280;5494;51.796;10.952;2023-11-21T09:30:11;98811.88;;;6.15;100.00
18988;BME280;5494;51.796;10.952;2023-11-21T09:32:41;98812.63;;;6.17;100.00
18988;BME280;5494;51.796;10.952;2023-11-21T09:35:13;98816.84;;;6.19;100.00
18988;BME280;5494;51.796;10.952;2023-11-21T09:37:44;98806.75;;;6.13;100.00
18988;BME280;5494;51.796;10.952;2023-11-21T09:40:22;98821.28;;;5.91;100.00
18988;BME280;5494;51.796;10.952;2023-11-21T09:42:55;98824.06;;;5.85;100.00
18988;BME280;5494;51.796;10.952;2023-11-21T09:45:27;98828.19;;;5.64;100.00
18988;BME280;5494;51.796;10.952;2023-11-21T09:47:56;98831.91;;;5.55;100.00
18988;BME280;5494;51.796;10.952;2023-11-21T09:50:25;98828.66;;;5.50;100.00
18988;BME280;5494;51.796;10.952;2023-11-21T09:53:04;98831.91;;;5.55;100.00
18988;BME280;5494;51.796;10.952;2023-11-21T09:55:39;98836.59;;;5.44;100.00
18988;BME280;5494;51.796;10.952;2023-11-21T09:58:11;98837.19;;;5.52;100.00
18988;BME280;5494;51.796;10.952;2023-11-21T10:00:42;98848.63;;;5.44;100.00
18988;BME280;5494;51.796;10.952;2023-11-21T10:03:12;98839.91;;;5.48;100.00
18988;BME280;5494;51.796;10.952;2023-11-21T10:05:42;98848.06;;;5.61;100.00
18988;BME280;5494;51.796;10.952;2023-11-21T10:08:13;98852.53;;;5.55;100.00
18988;BME280;5494;51.796;10.952;2023-11-21T10:10:44;98852.25;;;5.65;100.00
18988;BME280;5494;51.796;10.952;2023-11-21T10:13:13;98852.94;;;5.70;100.00
18988;BME280;5494;51.796;10.952;2023-11-21T10:15:50;98855.16;;;5.80;100.00
18988;BME280;5494;51.796;10.952;2023-11-21T10:18:19;98860.06;;;5.62;100.00
18988;BME280;5494;51.796;10.952;2023-11-21T10:20:49;98859.88;;;5.68;100.00
18988;BME280;5494;51.796;10.952;2023-11-21T10:23:22;98857.66;;;5.82;100.00
18988;BME280;5494;51.796;10.952;2023-11-21T10:25:51;98860.66;;;5.96;100.00
18988;BME280;5494;51.796;10.952;2023-11-21T10:28:21;98862.78;;;6.10;100.00
18988;BME280;5494;51.796;10.952;2023-11-21T10:30:49;98867.56;;;6.20;100.00
18988;BME280;5494;51.796;10.952;2023-11-21T10:33:17;98869.13;;;6.01;100.00
18988;BME280;5494;51.796;10.952;2023-11-21T10:35:47;98876.81;;;5.75;100.00
18988;BME280;5494;51.796;10.952;2023-11-21T10:38:18;98878.91;;;5.64;100.00
18988;BME280;5494;51.796;10.952;2023-11-21T10:40:50;98885.75;;;5.65;100.00
18988;BME280;5494;51.796;10.952;2023-11-21T10:43:18;98894.59;;;5.58;100.00
18988;BME280;5494;51.796;10.952;2023-11-21T10:45:47;98893.94;;;5.51;100.00
18988;BME280;5494;51.796;10.952;2023-11-21T10:48:15;98895.56;;;5.53;100.00
18988;BME280;5494;51.796;10.952;2023-11-21T10:50:46;98895.22;;;5.64;100.00
18988;BME280;5494;51.796;10.952;2023-11-21T10:53:15;98903.22;;;5.57;100.00
18988;BME280;5494;51.796;10.952;2023-11-21T10:55:44;98905.38;;;5.69;100.00
18988;BME280;5494;51.796;10.952;2023-11-21T10:58:15;98906.59;;;5.59;100.00
18988;BME280;5494;51.796;10.952;2023-11-21T11:00:44;98918.47;;;5.63;100.00
18988;BME280;5494;51.796;10.952;2023-11-21T11:03:13;98917.84;;;5.56;100.00
18988;BME280;5494;51.796;10.952;2023-11-21T11:05:44;98920.56;;;5.51;100.00
18988;BME280;5494;51.796;10.952;2023-11-21T11:08:21;98918.63;;;5.58;100.00
18988;BME280;5494;51.796;10.952;2023-11-21T11:10:55;98928.28;;;5.79;100.00
18988;BME280;5494;51.796;10.952;2023-11-21T11:13:26;98932.38;;;5.59;100.00
18988;BME280;5494;51.796;10.952;2023-11-21T11:15:59;98933.78;;;5.67;100.00
18988;BME280;5494;51.796;10.952;2023-11-21T11:18:28;98943.63;;;5.56;100.00
18988;BME280;5494;51.796;10.952;2023-11-21T11:21:07;98939.78;;;5.41;100.00
18988;BME280;5494;51.796;10.952;2023-11-21T11:23:58;98947.28;;;5.49;100.00
18988;BME280;5494;51.796;10.952;2023-11-21T11:26:46;98951.38;;;5.54;100.00
18988;BME280;5494;51.796;10.952;2023-11-21T11:29:29;98963.41;;;5.55;100.00
18988;BME280;5494;51.796;10.952;2023-11-21T11:32:12;98964.03;;;5.62;100.00
18988;BME280;5494;51.796;10.952;2023-11-21T11:34:50;98969.84;;;5.69;100.00
18988;BME280;5494;51.796;10.952;2023-11-21T11:37:22;98965.75;;;5.91;100.00
18988;BME280;5494;51.796;10.952;2023-11-21T11:39:51;98976.44;;;5.79;100.00
18988;BME280;5494;51.796;10.952;2023-11-21T11:42:22;98973.53;;;5.89;100.00
18988;BME280;5494;51.796;10.952;2023-11-21T11:44:53;98974.94;;;6.00;100.00
18988;BME280;5494;51.796;10.952;2023-11-21T11:47:25;98978.56;;;5.94;100.00
18988;BME280;5494;51.796;10.952;2023-11-21T11:50:07;98978.72;;;5.88;100.00
18988;BME280;5494;51.796;10.952;2023-11-21T11:52:42;98983.13;;;5.84;100.00
18988;BME280;5494;51.796;10.952;2023-11-21T11:55:12;98976.63;;;5.73;100.00
18988;BME280;5494;51.796;10.952;2023-11-21T11:57:43;98984.03;;;5.55;100.00
18988;BME280;5494;51.796;10.952;2023-11-21T12:00:17;98991.44;;;5.38;100.00
18988;BME280;5494;51.796;10.952;2023-11-21T12:02:53;98994.53;;;5.49;100.00
18988;BME280;5494;51.796;10.952;2023-11-21T12:05:25;99000.72;;;5.44;100.00
18988;BME280;5494;51.796;10.952;2023-11-21T12:07:56;98997.44;;;5.67;100.00
18988;BME280;5494;51.796;10.952;2023-11-21T12:10:27;98995.91;;;5.89;100.00
18988;BME280;5494;51.796;10.952;2023-11-21T12:12:57;98995.22;;;6.10;100.00
18988;BME280;5494;51.796;10.952;2023-11-21T12:15:27;98999.28;;;6.17;100.00
18988;BME280;5494;51.796;10.952;2023-11-21T12:17:57;99000.13;;;6.18;100.00
18988;BME280;5494;51.796;10.952;2023-11-21T12:20:27;99003.16;;;6.30;100.00
18988;BME280;5494;51.796;10.952;2023-11-21T12:22:58;99011.59;;;6.36;100.00
18988;BME280;5494;51.796;10.952;2023-11-21T12:25:28;99010.38;;;6.21;100.00
18988;BME280;5494;51.796;10.952;2023-11-21T12:28:00;99018.16;;;5.93;100.00
18988;BME280;5494;51.796;10.952;2023-11-21T12:30:34;99023.81;;;5.75;100.00
18988;BME280;5494;51.796;10.952;2023-11-21T12:33:03;99026.34;;;5.76;100.00
18988;BME280;5494;51.796;10.952;2023-11-21T12:35:35;99026.09;;;5.85;100.00
18988;BME280;5494;51.796;10.952;2023-11-21T12:38:04;99030.25;;;5.91;100.00
18988;BME280;5494;51.796;10.952;2023-11-21T12:40:33;99032.00;;;5.89;100.00
18988;BME280;5494;51.796;10.952;2023-11-21T12:43:01;99025.97;;;5.90;100.00
18988;BME280;5494;51.796;10.952;2023-11-21T12:45:33;99028.75;;;6.10;100.00
18988;BME280;5494;51.796;10.952;2023-11-21T12:48:02;99026.34;;;6.06;100.00
18988;BME280;5494;51.796;10.952;2023-11-21T12:50:36;99032.94;;;6.14;100.00
18988;BME280;5494;51.796;10.952;2023-11-21T12:53:06;99030.81;;;6.27;100.00
18988;BME280;5494;51.796;10.952;2023-11-21T12:55:37;99034.03;;;6.33;100.00
18988;BME280;5494;51.796;10.952;2023-11-21T12:58:08;99033.16;;;6.35;100.00
18988;BME280;5494;51.796;10.952;2023-11-21T13:00:43;99041.41;;;6.44;100.00
18988;BME280;5494;51.796;10.952;2023-11-21T13:03:15;99043.56;;;6.31;100.00
18988;BME280;5494;51.796;10.952;2023-11-21T13:05:48;99041.47;;;6.16;100.00
18988;BME280;5494;51.796;10.952;2023-11-21T13:08:20;99053.84;;;6.07;100.00
18988;BME280;5494;51.796;10.952;2023-11-21T13:10:52;99058.69;;;6.16;100.00
18988;BME280;5494;51.796;10.952;2023-11-21T13:13:23;99062.63;;;6.01;100.00
18988;BME280;5494;51.796;10.952;2023-11-21T13:16:00;99061.00;;;5.97;100.00